Lady Duvera — PB2875 — position and weather

sailwx.info

Track history (hours):
 
Tides and Currents Weather Stations Pressure Air Temp Water Temp Dewpoint Dewpoint Depression Visibility Wind Speed Wind Dir Waves Ship Positions

Lady Duvera

Last reported at 2016-Sep-26 19:22 UTC. Time now 2016-Sep-26 20:44 UTC.
Position N 43°34' E 007°05'.

Length 44 m.

MMSI: 244650177.

Date/timePositionNaut miles runAvg speedWind from/ knotsBaromVisibWave heightAir tempDewpointWater temp
2016-Sep-26 19:22N 43°34' E 007°05'0 0.0
2016-Sep-26 15:28N 43°34' E 007°05'0 0.0
2016-Sep-26 11:04N 43°34' E 007°05'0 0.0
2016-Sep-26 08:04N 43°34' E 007°05'0 0.0
2016-Sep-26 01:28N 43°34' E 007°05'0 0.0
2016-Sep-26 00:22N 43°34' E 007°05'0 0.0
2016-Sep-25 21:10N 43°34' E 007°05'0 0.0
2016-Sep-25 17:28N 43°34' E 007°05'0 0.0
2016-Sep-25 16:16N 43°34' E 007°05'0 0.0
2016-Sep-25 15:28N 43°34' E 007°05'0 0.0
2016-Sep-25 12:28N 43°34' E 007°05'0 0.0
2016-Sep-25 11:28N 43°34' E 007°05'0 0.0
2016-Sep-25 10:22N 43°34' E 007°05'0 0.0
2016-Sep-25 09:28N 43°34' E 007°05'0 0.0
2016-Sep-25 07:22N 43°34' E 007°05'0 0.0
2016-Sep-25 04:28N 43°34' E 007°05'0 0.0
2016-Sep-25 00:28N 43°34' E 007°05'0 0.0
2016-Sep-24 22:28N 43°34' E 007°05'0 0.0
2016-Sep-24 21:22N 43°34' E 007°05'0 0.0
2016-Sep-24 19:34N 43°34' E 007°05'0 0.0
2016-Sep-24 18:34N 43°34' E 007°05'0 0.0
2016-Sep-24 16:28N 43°34' E 007°05'0 0.0
2016-Sep-24 12:27N 43°34' E 007°05'0 0.0
2016-Sep-24 10:28N 43°34' E 007°05'0 0.0
2016-Sep-24 09:27N 43°34' E 007°05'3 0.4
2016-Sep-24 03:30N 43°32' E 007°03'0 0.0
2016-Sep-24 02:30N 43°32' E 007°03'0 0.0
2016-Sep-24 00:30N 43°32' E 007°03'0 0.0
2016-Sep-23 19:30N 43°32' E 007°03'0 0.0
2016-Sep-23 17:18N 43°32' E 007°03'0 0.0
2016-Sep-23 16:30N 43°32' E 007°03'0 0.0
2016-Sep-23 15:06N 43°32' E 007°03'0 0.0
2016-Sep-23 13:24N 43°32' E 007°03'1 0.4
2016-Sep-23 09:31N 43°32' E 007°01'4 0.8
2016-Sep-23 04:29N 43°31' E 006°57'0 0.0
2016-Sep-23 03:05N 43°31' E 006°57'0 0.0
2016-Sep-23 01:05N 43°31' E 006°57'  
2016-Sep-20 10:23N 43°42' E 007°21'0 0.0
2016-Sep-20 06:29N 43°42' E 007°20'0 0.0
2016-Sep-19 23:29N 43°42' E 007°20'0 0.0
2016-Sep-19 18:17N 43°42' E 007°20'0 0.0
2016-Sep-19 14:29N 43°42' E 007°20'0 0.0
2016-Sep-19 13:29N 43°42' E 007°20'0 0.0
2016-Sep-19 12:23N 43°42' E 007°20'4 1.4
2016-Sep-19 09:33N 43°38' E 007°17'9 4.7
2016-Sep-19 07:33N 43°33' E 007°07'0 0.0
2016-Sep-19 06:33N 43°33' E 007°07'0 0.0
2016-Sep-19 03:21N 43°33' E 007°07'0 0.0
2016-Sep-19 02:33N 43°33' E 007°07'0 0.0
2016-Sep-19 00:27N 43°33' E 007°07'0 0.0
2016-Sep-18 19:33N 43°33' E 007°07'0 0.0
2016-Sep-18 15:33N 43°33' E 007°07'1 0.7
2016-Sep-18 14:33N 43°33' E 007°06'1 0.3
2016-Sep-18 10:34N 43°34' E 007°05'0 0.2
2016-Sep-18 09:32N 43°34' E 007°05'0 0.0
2016-Sep-18 02:32N 43°34' E 007°05'0 0.0
2016-Sep-18 01:32N 43°34' E 007°05'0 0.0
2016-Sep-18 00:32N 43°34' E 007°05'0 0.0
2016-Sep-17 21:32N 43°34' E 007°05'0 0.0
2016-Sep-17 20:32N 43°34' E 007°05'0 0.0
2016-Sep-17 19:14N 43°34' E 007°05'0 0.0
2016-Sep-17 13:26N 43°34' E 007°05'0 0.0
2016-Sep-17 12:32N 43°34' E 007°05'0 0.0
2016-Sep-17 10:20N 43°34' E 007°05'0 0.0
2016-Sep-17 09:32N 43°34' E 007°05'0 0.0
2016-Sep-17 08:32N 43°34' E 007°05'0 0.0
2016-Sep-17 07:20N 43°34' E 007°05'0 0.0
2016-Sep-17 05:26N 43°34' E 007°05'0 0.0
2016-Sep-17 04:32N 43°34' E 007°05'0 0.0
2016-Sep-17 00:32N 43°34' E 007°05'  
Track history (hours):
 
Tides and Currents Weather Stations Pressure Air Temp Water Temp Dewpoint Dewpoint Depression Visibility Wind Speed Wind Dir Waves Ship Positions

Lady Duvera

Last reported at 2016-Sep-26 19:22 UTC. Time now 2016-Sep-26 20:44 UTC.
Position N 43°34' E 007°05'.

Length 44 m.

MMSI: 244650177.

Date/timePositionNaut miles runAvg speedWind from/ knotsBaromVisibWave heightAir tempDewpointWater temp
2016-Sep-26 19:22N 43°34' E 007°05'0 0.0
2016-Sep-26 15:28N 43°34' E 007°05'0 0.0
2016-Sep-26 11:04N 43°34' E 007°05'0 0.0
2016-Sep-26 08:04N 43°34' E 007°05'0 0.0
2016-Sep-26 01:28N 43°34' E 007°05'0 0.0
2016-Sep-26 00:22N 43°34' E 007°05'0 0.0
2016-Sep-25 21:10N 43°34' E 007°05'0 0.0
2016-Sep-25 17:28N 43°34' E 007°05'0 0.0
2016-Sep-25 16:16N 43°34' E 007°05'0 0.0
2016-Sep-25 15:28N 43°34' E 007°05'0 0.0
2016-Sep-25 12:28N 43°34' E 007°05'0 0.0
2016-Sep-25 11:28N 43°34' E 007°05'0 0.0
2016-Sep-25 10:22N 43°34' E 007°05'0 0.0
2016-Sep-25 09:28N 43°34' E 007°05'0 0.0
2016-Sep-25 07:22N 43°34' E 007°05'0 0.0
2016-Sep-25 04:28N 43°34' E 007°05'0 0.0
2016-Sep-25 00:28N 43°34' E 007°05'0 0.0
2016-Sep-24 22:28N 43°34' E 007°05'0 0.0
2016-Sep-24 21:22N 43°34' E 007°05'0 0.0
2016-Sep-24 19:34N 43°34' E 007°05'0 0.0
2016-Sep-24 18:34N 43°34' E 007°05'0 0.0
2016-Sep-24 16:28N 43°34' E 007°05'0 0.0
2016-Sep-24 12:27N 43°34' E 007°05'0 0.0
2016-Sep-24 10:28N 43°34' E 007°05'0 0.0
2016-Sep-24 09:27N 43°34' E 007°05'3 0.4
2016-Sep-24 03:30N 43°32' E 007°03'0 0.0
2016-Sep-24 02:30N 43°32' E 007°03'0 0.0
2016-Sep-24 00:30N 43°32' E 007°03'0 0.0
2016-Sep-23 19:30N 43°32' E 007°03'0 0.0
2016-Sep-23 17:18N 43°32' E 007°03'0 0.0
2016-Sep-23 16:30N 43°32' E 007°03'0 0.0
2016-Sep-23 15:06N 43°32' E 007°03'0 0.0
2016-Sep-23 13:24N 43°32' E 007°03'1 0.4
2016-Sep-23 09:31N 43°32' E 007°01'4 0.8
2016-Sep-23 04:29N 43°31' E 006°57'0 0.0
2016-Sep-23 03:05N 43°31' E 006°57'0 0.0
2016-Sep-23 01:05N 43°31' E 006°57'  
2016-Sep-20 10:23N 43°42' E 007°21'0 0.0
2016-Sep-20 06:29N 43°42' E 007°20'0 0.0
2016-Sep-19 23:29N 43°42' E 007°20'0 0.0
2016-Sep-19 18:17N 43°42' E 007°20'0 0.0
2016-Sep-19 14:29N 43°42' E 007°20'0 0.0
2016-Sep-19 13:29N 43°42' E 007°20'0 0.0
2016-Sep-19 12:23N 43°42' E 007°20'4 1.4
2016-Sep-19 09:33N 43°38' E 007°17'9 4.7
2016-Sep-19 07:33N 43°33' E 007°07'0 0.0
2016-Sep-19 06:33N 43°33' E 007°07'0 0.0
2016-Sep-19 03:21N 43°33' E 007°07'0 0.0
2016-Sep-19 02:33N 43°33' E 007°07'0 0.0
2016-Sep-19 00:27N 43°33' E 007°07'0 0.0
2016-Sep-18 19:33N 43°33' E 007°07'0 0.0
2016-Sep-18 15:33N 43°33' E 007°07'1 0.7
2016-Sep-18 14:33N 43°33' E 007°06'1 0.3
2016-Sep-18 10:34N 43°34' E 007°05'0 0.2
2016-Sep-18 09:32N 43°34' E 007°05'0 0.0
2016-Sep-18 02:32N 43°34' E 007°05'0 0.0
2016-Sep-18 01:32N 43°34' E 007°05'0 0.0
2016-Sep-18 00:32N 43°34' E 007°05'0 0.0
2016-Sep-17 21:32N 43°34' E 007°05'0 0.0
2016-Sep-17 20:32N 43°34' E 007°05'0 0.0
2016-Sep-17 19:14N 43°34' E 007°05'0 0.0
2016-Sep-17 13:26N 43°34' E 007°05'0 0.0
2016-Sep-17 12:32N 43°34' E 007°05'0 0.0
2016-Sep-17 10:20N 43°34' E 007°05'0 0.0
2016-Sep-17 09:32N 43°34' E 007°05'0 0.0
2016-Sep-17 08:32N 43°34' E 007°05'0 0.0
2016-Sep-17 07:20N 43°34' E 007°05'0 0.0
2016-Sep-17 05:26N 43°34' E 007°05'0 0.0
2016-Sep-17 04:32N 43°34' E 007°05'0 0.0
2016-Sep-17 00:32N 43°34' E 007°05'  

Dump ship's entire track history